Terminal Aerodrome Forecast
Issued by NWS Wilmington, OH

Current Version | Previous Version | Graphics & Text | Print | Product List | Glossary On
Versions: 1 2 3 4 5 6 7 8 9 10 11 12 13 14 15 16 17 18 19
000
FTUS41 KILN 090335 AAB
TAFILN
TAF AMD
KILN 090335Z 0904/0924 27010G18KT P6SM -SHSN OVC022
      TEMPO 0904/0905 3SM BR
     FM090700 27010KT P6SM BKN018=

USA.gov is the U.S. government's official web portal to all federal, state and local government web resources and services.